createdAt,value
2023-02-16T00:01:26.382Z,101930.38
2023-02-16T00:03:54.300Z,101926.94
2023-02-16T00:06:21.238Z,101943.38
2023-02-16T00:08:50.140Z,101925.63
2023-02-16T00:11:55.531Z,101943.94
2023-02-16T00:14:23.496Z,101941.06
2023-02-16T00:16:50.565Z,101929.91
2023-02-16T00:19:24.366Z,101936.09
2023-02-16T00:21:53.557Z,101933.38
2023-02-16T00:24:20.711Z,101926.47
2023-02-16T00:26:48.107Z,101933.06
2023-02-16T00:29:21.168Z,101942.47
2023-02-16T00:31:48.423Z,101938.31
2023-02-16T00:34:29.854Z,101946.72
2023-02-16T00:36:57.561Z,101942.41
2023-02-16T00:39:25.171Z,101943.28
2023-02-16T00:41:57.626Z,101931.25
2023-02-16T00:44:44.858Z,101927.44
2023-02-16T00:47:27.648Z,101942.00
2023-02-16T00:49:55.275Z,101932.41
2023-02-16T00:52:35.573Z,101921.53
2023-02-16T00:55:08.826Z,101913.38
2023-02-16T00:57:46.684Z,101921.53
2023-02-16T01:00:13.265Z,101921.22
2023-02-16T01:02:39.670Z,101919.75
2023-02-16T01:05:06.465Z,101924.59
2023-02-16T01:07:51.195Z,101926.63
2023-02-16T01:10:39.468Z,101926.25
2023-02-16T01:13:06.168Z,101925.06
2023-02-16T01:15:32.739Z,101927.09
2023-02-16T01:17:59.156Z,101929.19
2023-02-16T01:20:26.913Z,101936.59
2023-02-16T01:22:53.394Z,101929.59
2023-02-16T01:25:20.221Z,101933.44
2023-02-16T01:27:48.447Z,101938.88
2023-02-16T01:30:19.183Z,101933.44
2023-02-16T01:32:51.447Z,101928.25
2023-02-16T01:35:28.204Z,101932.97
2023-02-16T01:37:54.958Z,101928.69
2023-02-16T01:40:33.266Z,101924.34
2023-02-16T01:43:22.326Z,101922.66
2023-02-16T01:45:57.071Z,101920.06
2023-02-16T01:48:28.904Z,101923.91
2023-02-16T01:51:11.839Z,101914.28
2023-02-16T01:54:06.027Z,101907.41
2023-02-16T01:56:54.555Z,101905.81
2023-02-16T01:59:39.396Z,101904.81
2023-02-16T02:02:23.335Z,101902.09
2023-02-16T02:05:12.272Z,101904.81
2023-02-16T02:08:06.162Z,101911.63
2023-02-16T02:10:52.401Z,101910.88
2023-02-16T02:13:39.628Z,101902.75
2023-02-16T02:16:07.000Z,101905.63
2023-02-16T02:18:33.811Z,101905.72
2023-02-16T02:21:47.092Z,101900.69
2023-02-16T02:24:55.005Z,101899.50
2023-02-16T02:27:21.299Z,101904.31
2023-02-16T02:30:06.362Z,101910.00
2023-02-16T02:32:54.784Z,101908.28
2023-02-16T02:35:38.178Z,101909.41
2023-02-16T02:38:38.741Z,101904.25
2023-02-16T02:41:07.848Z,101910.78
2023-02-16T02:43:50.562Z,101913.63
2023-02-16T02:46:24.647Z,101898.22
2023-02-16T02:48:51.425Z,101909.19
2023-02-16T02:51:30.865Z,101907.59
2023-02-16T02:54:34.898Z,101920.44
2023-02-16T02:57:47.957Z,101913.53
2023-02-16T03:00:44.319Z,101914.78
2023-02-16T03:03:20.606Z,101912.06
2023-02-16T03:05:53.260Z,101904.91
2023-02-16T03:08:23.966Z,101904.91
2023-02-16T03:11:14.397Z,101908.63
2023-02-16T03:13:46.701Z,101906.03
2023-02-16T03:16:16.969Z,101904.31
2023-02-16T03:19:03.356Z,101903.56
2023-02-16T03:21:48.576Z,101901.00
2023-02-16T03:24:42.848Z,101889.41
2023-02-16T03:27:28.767Z,101889.56
2023-02-16T03:29:57.689Z,101889.94
2023-02-16T03:32:24.320Z,101886.50
2023-02-16T03:34:50.964Z,101883.91
2023-02-16T03:37:17.548Z,101883.91
2023-02-16T03:40:02.835Z,101883.91
2023-02-16T03:42:29.269Z,101879.34
2023-02-16T03:44:55.760Z,101882.78
2023-02-16T03:47:22.241Z,101879.09
2023-02-16T03:49:48.880Z,101875.38
2023-02-16T03:52:15.313Z,101877.94
2023-02-16T03:54:41.804Z,101884.25
2023-02-16T03:57:08.242Z,101878.72
2023-02-16T03:59:34.654Z,101885.97
2023-02-16T04:02:01.135Z,101884.13
2023-02-16T04:04:27.670Z,101877.13
2023-02-16T04:06:54.122Z,101884.50
2023-02-16T04:09:20.497Z,101891.91
2023-02-16T04:12:05.388Z,101885.03
2023-02-16T04:14:31.826Z,101882.56
2023-02-16T04:16:58.328Z,101880.84
2023-02-16T04:19:24.797Z,101880.34
2023-02-16T04:21:53.046Z,101882.34
2023-02-16T04:24:19.639Z,101882.44
2023-02-16T04:26:46.120Z,101882.59
2023-02-16T04:29:12.511Z,101890.72
2023-02-16T04:31:39.099Z,101889.97
2023-02-16T04:34:05.635Z,101892.94
2023-02-16T04:36:32.068Z,101890.22
2023-02-16T04:38:58.451Z,101888.50
2023-02-16T04:41:26.455Z,101898.47
2023-02-16T04:43:53.836Z,101899.47
2023-02-16T04:46:20.379Z,101904.16
2023-02-16T04:48:47.052Z,101901.59
2023-02-16T04:51:13.466Z,101894.19
2023-02-16T04:53:39.845Z,101900.09
2023-02-16T04:56:09.778Z,101893.44
2023-02-16T04:58:36.434Z,101889.47
2023-02-16T05:01:03.501Z,101897.09
2023-02-16T05:03:30.411Z,101895.00
2023-02-16T05:05:56.835Z,101894.75
2023-02-16T05:08:23.359Z,101899.91
2023-02-16T05:11:08.519Z,101888.06
2023-02-16T05:13:53.851Z,101892.75
2023-02-16T05:16:22.239Z,101888.34
2023-02-16T05:18:48.974Z,101884.75
2023-02-16T05:21:33.748Z,101889.31
2023-02-16T05:24:05.492Z,101887.84
2023-02-16T05:26:32.384Z,101887.25
2023-02-16T05:28:59.074Z,101880.34
2023-02-16T05:31:26.254Z,101888.03
2023-02-16T05:33:53.575Z,101882.81
2023-02-16T05:36:20.018Z,101886.53
2023-02-16T05:38:46.558Z,101891.09
2023-02-16T05:41:23.340Z,101888.25
2023-02-16T05:43:54.380Z,101888.84
2023-02-16T05:46:22.406Z,101893.19
2023-02-16T05:48:49.189Z,101891.06
2023-02-16T05:51:16.036Z,101885.78
2023-02-16T05:53:42.530Z,101889.84
2023-02-16T05:56:09.433Z,101892.28
2023-02-16T05:58:36.076Z,101905.69
2023-02-16T06:01:02.695Z,101888.81
2023-02-16T06:03:29.411Z,101890.81
2023-02-16T06:05:58.164Z,101890.69
2023-02-16T06:08:25.188Z,101896.34
2023-02-16T06:10:53.487Z,101887.63
2023-02-16T06:13:20.905Z,101891.19
2023-02-16T06:15:48.038Z,101892.16
2023-02-16T06:18:14.430Z,101892.31
2023-02-16T06:20:43.033Z,101889.47
2023-02-16T06:23:10.958Z,101894.16
2023-02-16T06:25:37.692Z,101898.84
2023-02-16T06:28:04.800Z,101902.53
2023-02-16T06:30:31.217Z,101898.22
2023-02-16T06:32:57.672Z,101901.06
2023-02-16T06:35:24.508Z,101897.59
2023-02-16T06:37:51.413Z,101899.59
2023-02-16T06:40:18.142Z,101902.41
2023-02-16T06:42:44.985Z,101898.72
2023-02-16T06:45:12.025Z,101897.88
2023-02-16T06:47:39.307Z,101896.16
2023-02-16T06:50:09.689Z,101894.19
2023-02-16T06:52:37.264Z,101895.31
2023-02-16T06:55:04.009Z,101905.28
2023-02-16T06:57:30.410Z,101898.13
2023-02-16T06:59:57.270Z,101902.56
2023-02-16T07:02:23.757Z,101894.44
2023-02-16T07:04:50.153Z,101906.75
2023-02-16T07:07:16.582Z,101895.41
2023-02-16T07:09:42.969Z,101899.69
2023-02-16T07:12:09.356Z,101908.56
2023-02-16T07:14:35.866Z,101900.31
2023-02-16T07:17:04.370Z,101909.69
2023-02-16T07:19:34.730Z,101899.56
2023-02-16T07:22:02.004Z,101903.00
2023-02-16T07:24:28.398Z,101894.84
2023-02-16T07:26:55.322Z,101908.19
2023-02-16T07:29:22.153Z,101914.06
2023-02-16T07:31:48.898Z,101921.81
2023-02-16T07:34:15.378Z,101924.16
2023-02-16T07:36:42.174Z,101919.19
2023-02-16T07:39:08.576Z,101915.00
2023-02-16T07:41:34.957Z,101930.50
2023-02-16T07:44:01.323Z,101933.19
2023-02-16T07:46:27.838Z,101924.72
2023-02-16T07:48:54.241Z,101922.81
2023-02-16T07:51:24.771Z,101934.09
2023-02-16T07:53:51.504Z,101930.19
2023-02-16T07:56:20.328Z,101930.59
2023-02-16T07:58:47.498Z,101931.34
2023-02-16T08:01:15.933Z,101930.44
2023-02-16T08:03:42.460Z,101934.34
2023-02-16T08:06:09.459Z,101927.97
2023-02-16T08:08:37.463Z,101928.31
2023-02-16T08:11:19.289Z,101926.03
2023-02-16T08:13:46.129Z,101920.06
2023-02-16T08:16:19.223Z,101913.06
2023-02-16T08:18:45.760Z,101907.31
2023-02-16T08:21:17.857Z,101904.03
2023-02-16T08:23:49.536Z,101912.66
2023-02-16T08:26:17.305Z,101923.13
2023-02-16T08:28:50.121Z,101916.97
2023-02-16T08:31:18.942Z,101911.53
2023-02-16T08:33:47.465Z,101917.41
2023-02-16T08:36:24.794Z,101895.78
2023-02-16T08:38:53.322Z,101902.09
2023-02-16T08:41:21.381Z,101906.69
2023-02-16T08:43:48.014Z,101898.34
2023-02-16T08:46:15.185Z,101908.41
2023-02-16T08:48:43.906Z,101909.69
2023-02-16T08:51:14.054Z,101912.56
2023-02-16T08:53:40.670Z,101915.28
2023-02-16T08:56:09.764Z,101904.09
2023-02-16T08:58:37.147Z,101912.97
2023-02-16T09:01:08.232Z,101902.06
2023-02-16T09:03:35.777Z,101900.78
2023-02-16T09:06:05.015Z,101902.94
2023-02-16T09:08:37.471Z,101912.09
2023-02-16T09:11:06.290Z,101913.81
2023-02-16T09:13:37.845Z,101916.13
2023-02-16T09:16:09.783Z,101915.97
2023-02-16T09:18:37.621Z,101911.81
2023-02-16T09:21:10.927Z,101906.66
2023-02-16T09:23:42.706Z,101908.94
2023-02-16T09:26:11.335Z,101913.41
2023-02-16T09:28:39.173Z,101905.78
2023-02-16T09:31:13.803Z,101897.75
2023-02-16T09:33:41.930Z,101892.59
2023-02-16T09:36:11.594Z,101893.47
2023-02-16T09:38:41.768Z,101895.19
2023-02-16T09:41:27.976Z,101896.03
2023-02-16T09:44:00.864Z,101908.66
2023-02-16T09:46:30.487Z,101900.47
2023-02-16T09:48:57.736Z,101902.94
2023-02-16T09:51:41.014Z,101912.25
2023-02-16T09:54:35.262Z,101910.25
2023-02-16T09:57:41.181Z,101908.66
2023-02-16T10:00:28.041Z,101900.22
2023-02-16T10:03:23.675Z,101895.78
2023-02-16T10:06:07.230Z,101898.94
2023-02-16T10:08:50.463Z,101901.75
2023-02-16T10:11:38.154Z,101896.47
2023-02-16T10:14:17.222Z,101890.84
2023-02-16T10:16:51.733Z,101881.88
2023-02-16T10:19:46.846Z,101883.16
2023-02-16T10:22:17.796Z,101873.69
2023-02-16T10:25:00.547Z,101867.50
2023-02-16T10:27:33.231Z,101880.56
2023-02-16T10:29:59.827Z,101876.97
2023-02-16T10:32:37.289Z,101872.53
2023-02-16T10:35:18.064Z,101861.19
2023-02-16T10:38:04.755Z,101858.81
2023-02-16T10:40:51.573Z,101858.13
2023-02-16T10:43:39.671Z,101858.44
2023-02-16T10:46:06.969Z,101855.81
2023-02-16T10:48:33.606Z,101845.69
2023-02-16T10:51:09.177Z,101845.69
2023-02-16T10:54:13.068Z,101859.38
2023-02-16T10:56:54.330Z,101856.72
2023-02-16T10:59:40.133Z,101853.41
2023-02-16T11:02:26.932Z,101852.75
2023-02-16T11:04:55.755Z,101851.19
2023-02-16T11:07:24.994Z,101854.53
2023-02-16T11:09:56.248Z,101860.53
2023-02-16T11:12:34.254Z,101862.06
2023-02-16T11:15:08.118Z,101861.44
2023-02-16T11:17:49.598Z,101853.56
2023-02-16T11:20:32.650Z,101868.00
2023-02-16T11:23:17.362Z,101861.81
2023-02-16T11:26:05.534Z,101857.56
2023-02-16T11:28:44.348Z,101855.47
2023-02-16T11:31:17.746Z,101857.34
2023-02-16T11:34:12.476Z,101843.28
2023-02-16T11:36:45.223Z,101842.56
2023-02-16T11:39:20.500Z,101838.97
2023-02-16T11:42:01.145Z,101838.84
2023-02-16T11:44:34.564Z,101838.00
2023-02-16T11:47:05.975Z,101834.44
2023-02-16T11:49:36.117Z,101820.72
2023-02-16T11:52:17.908Z,101812.47
2023-02-16T11:54:57.436Z,101810.75
2023-02-16T11:57:28.462Z,101799.97
2023-02-16T11:59:56.564Z,101793.44
2023-02-16T12:02:37.973Z,101803.88
2023-02-16T12:05:21.732Z,101798.00
2023-02-16T12:08:12.952Z,101798.44
2023-02-16T12:11:12.222Z,101799.28
2023-02-16T12:13:57.899Z,101784.66
2023-02-16T12:16:35.219Z,101781.84
2023-02-16T12:19:20.886Z,101781.31
2023-02-16T12:21:50.663Z,101777.84
2023-02-16T12:24:33.439Z,101772.66
2023-02-16T12:27:07.294Z,101773.16
2023-02-16T12:29:39.467Z,101760.28
2023-02-16T12:32:44.018Z,101761.31
2023-02-16T12:35:22.406Z,101749.28
2023-02-16T12:38:13.765Z,101746.84
2023-02-16T12:41:04.627Z,101747.53
2023-02-16T12:43:42.947Z,101751.31
2023-02-16T12:46:32.917Z,101753.94
2023-02-16T12:49:07.278Z,101744.13
2023-02-16T12:51:42.356Z,101749.28
2023-02-16T12:54:17.357Z,101751.84
2023-02-16T12:56:50.239Z,101745.47
2023-02-16T12:59:35.499Z,101745.13
2023-02-16T13:02:09.845Z,101752.31
2023-02-16T13:04:57.339Z,101753.03
2023-02-16T13:07:38.307Z,101754.72
2023-02-16T13:10:07.480Z,101744.78
2023-02-16T13:12:39.479Z,101737.56
2023-02-16T13:15:16.850Z,101738.59
2023-02-16T13:17:48.949Z,101734.97
2023-02-16T13:20:17.796Z,101732.44
2023-02-16T13:22:54.734Z,101733.09
2023-02-16T13:25:39.828Z,101733.78
2023-02-16T13:28:27.816Z,101734.28
2023-02-16T13:31:00.204Z,101723.06
2023-02-16T13:33:37.766Z,101718.66
2023-02-16T13:36:22.399Z,101717.59
2023-02-16T13:39:13.954Z,101716.94
2023-02-16T13:41:55.609Z,101713.16
2023-02-16T13:44:53.636Z,101707.66
2023-02-16T13:47:27.418Z,101701.09
2023-02-16T13:50:02.969Z,101700.06
2023-02-16T13:52:34.318Z,101695.44
2023-02-16T13:55:03.300Z,101690.78
2023-02-16T13:57:50.696Z,101687.34
2023-02-16T14:00:38.775Z,101679.97
2023-02-16T14:03:22.971Z,101675.34
2023-02-16T14:05:52.127Z,101681.88
2023-02-16T14:08:29.590Z,101687.34
2023-02-16T14:11:03.732Z,101682.72
2023-02-16T14:13:38.943Z,101685.31
2023-02-16T14:16:10.674Z,101689.72
2023-02-16T14:18:44.719Z,101683.91
2023-02-16T14:21:27.820Z,101677.34
2023-02-16T14:23:57.219Z,101674.88
2023-02-16T14:26:24.838Z,101672.78
2023-02-16T14:29:09.842Z,101674.50
2023-02-16T14:31:47.648Z,101672.63
2023-02-16T14:34:35.713Z,101671.59
2023-02-16T14:37:35.017Z,101669.03
2023-02-16T14:40:18.498Z,101660.59
2023-02-16T14:42:51.471Z,101647.34
2023-02-16T14:45:37.702Z,101638.72
2023-02-16T14:48:30.275Z,101639.56
2023-02-16T14:51:33.710Z,101646.41
2023-02-16T14:54:26.945Z,101640.69
2023-02-16T14:57:07.113Z,101638.81
2023-02-16T14:59:52.839Z,101641.84
2023-02-16T15:02:40.417Z,101637.47
2023-02-16T15:05:20.065Z,101632.28
2023-02-16T15:07:50.742Z,101635.31
2023-02-16T15:10:26.426Z,101627.16
2023-02-16T15:12:54.978Z,101641.00
2023-02-16T15:15:48.798Z,101631.97
2023-02-16T15:18:22.724Z,101636.91
2023-02-16T15:20:52.945Z,101627.69
2023-02-16T15:23:25.833Z,101624.38
2023-02-16T15:26:04.116Z,101622.13
2023-02-16T15:28:36.817Z,101606.94
2023-02-16T15:31:10.706Z,101603.41
2023-02-16T15:33:40.385Z,101604.25
2023-02-16T15:36:11.893Z,101610.22
2023-02-16T15:38:41.838Z,101605.41
2023-02-16T15:41:14.193Z,101607.75
2023-02-16T15:43:48.085Z,101604.78
2023-02-16T15:46:24.255Z,101605.47
2023-02-16T15:48:50.976Z,101608.22
2023-02-16T15:51:37.888Z,101603.56
2023-02-16T15:54:19.233Z,101606.97
2023-02-16T15:56:51.561Z,101610.75
2023-02-16T15:59:35.787Z,101602.72
2023-02-16T16:02:24.619Z,101605.66
2023-02-16T16:04:55.274Z,101601.84
2023-02-16T16:07:32.807Z,101600.53
2023-02-16T16:10:00.271Z,101591.63
2023-02-16T16:12:27.618Z,101595.44
2023-02-16T16:15:00.504Z,101593.25
2023-02-16T16:17:31.101Z,101597.03
2023-02-16T16:20:17.751Z,101597.66
2023-02-16T16:22:44.820Z,101603.50
2023-02-16T16:25:37.846Z,101609.59
2023-02-16T16:28:07.555Z,101604.66
2023-02-16T16:30:36.977Z,101616.69
2023-02-16T16:33:06.393Z,101615.38
2023-02-16T16:35:45.314Z,101611.97
2023-02-16T16:38:33.236Z,101610.25
2023-02-16T16:41:03.344Z,101611.28
2023-02-16T16:43:32.546Z,101628.19
2023-02-16T16:46:08.121Z,101623.72
2023-02-16T16:48:37.180Z,101627.53
2023-02-16T16:51:18.096Z,101630.69
2023-02-16T16:53:52.818Z,101628.50
2023-02-16T16:56:20.283Z,101633.13
2023-02-16T16:58:56.734Z,101631.25
2023-02-16T17:01:24.651Z,101631.41
2023-02-16T17:03:51.076Z,101634.16
2023-02-16T17:06:18.653Z,101639.66
2023-02-16T17:08:45.747Z,101636.91
2023-02-16T17:11:33.688Z,101631.63
2023-02-16T17:14:10.163Z,101641.78
2023-02-16T17:16:40.834Z,101641.78
2023-02-16T17:19:07.318Z,101636.44
2023-02-16T17:21:33.715Z,101642.81
2023-02-16T17:24:00.214Z,101637.94
2023-02-16T17:26:26.756Z,101647.91
2023-02-16T17:28:53.586Z,101642.41
2023-02-16T17:31:20.092Z,101646.88
2023-02-16T17:33:46.663Z,101641.38
2023-02-16T17:36:15.448Z,101641.38
2023-02-16T17:38:41.956Z,101642.88
2023-02-16T17:41:19.165Z,101649.06
2023-02-16T17:43:45.581Z,101641.84
2023-02-16T17:46:13.333Z,101640.63
2023-02-16T17:48:39.775Z,101642.31
2023-02-16T17:51:13.278Z,101646.13
2023-02-16T17:53:41.141Z,101637.22
2023-02-16T17:56:11.695Z,101641.69
2023-02-16T17:58:38.229Z,101636.34
2023-02-16T18:01:05.034Z,101636.53
2023-02-16T18:03:31.522Z,101639.50
2023-02-16T18:05:57.906Z,101639.50
2023-02-16T18:08:24.302Z,101638.63
2023-02-16T18:10:53.822Z,101637.59
2023-02-16T18:13:20.357Z,101629.34
2023-02-16T18:15:48.881Z,101625.53
2023-02-16T18:18:16.590Z,101628.97
2023-02-16T18:20:43.830Z,101628.28
2023-02-16T18:23:10.338Z,101630.00
2023-02-16T18:25:37.569Z,101633.13
2023-02-16T18:28:04.072Z,101639.28
2023-02-16T18:30:30.888Z,101641.00
2023-02-16T18:32:57.438Z,101639.97
2023-02-16T18:35:23.888Z,101634.00
2023-02-16T18:37:50.352Z,101639.50
2023-02-16T18:40:19.682Z,101636.75
2023-02-16T18:42:47.259Z,101641.38
2023-02-16T18:45:13.905Z,101631.63
2023-02-16T18:47:40.309Z,101637.13
2023-02-16T18:50:07.271Z,101638.16
2023-02-16T18:52:33.709Z,101640.06
2023-02-16T18:55:00.115Z,101646.41
2023-02-16T18:57:26.597Z,101638.81
2023-02-16T18:59:53.139Z,101632.44
2023-02-16T19:02:19.556Z,101636.44
2023-02-16T19:04:46.031Z,101641.78
2023-02-16T19:07:12.420Z,101630.78
2023-02-16T19:09:38.885Z,101622.31
2023-02-16T19:12:05.556Z,101625.53
2023-02-16T19:14:32.021Z,101611.78
2023-02-16T19:16:58.374Z,101617.75
2023-02-16T19:19:24.814Z,101611.91
2023-02-16T19:21:51.241Z,101609.63
2023-02-16T19:24:17.662Z,101611.59
2023-02-16T19:26:44.092Z,101614.16
2023-02-16T19:29:10.458Z,101612.91
2023-02-16T19:31:37.157Z,101609.75
2023-02-16T19:34:03.708Z,101613.38
2023-02-16T19:36:32.045Z,101610.44
2023-02-16T19:38:58.667Z,101599.44
2023-02-16T19:41:37.171Z,101601.84
2023-02-16T19:44:04.019Z,101595.25
2023-02-16T19:46:31.462Z,101598.69
2023-02-16T19:48:58.798Z,101600.41
2023-02-16T19:51:25.841Z,101585.56
2023-02-16T19:53:52.233Z,101594.50
2023-02-16T19:56:22.051Z,101584.34
2023-02-16T19:58:49.080Z,101575.88
2023-02-16T20:01:18.729Z,101583.09
2023-02-16T20:03:46.285Z,101583.09
2023-02-16T20:06:18.992Z,101585.47
2023-02-16T20:08:46.421Z,101587.34
2023-02-16T20:11:13.786Z,101589.94
2023-02-16T20:13:40.367Z,101589.94
2023-02-16T20:16:09.161Z,101592.47
2023-02-16T20:18:36.448Z,101588.88
2023-02-16T20:21:24.180Z,101594.75
2023-02-16T20:23:53.363Z,101583.09
2023-02-16T20:26:22.481Z,101581.00
2023-02-16T20:28:50.086Z,101577.41
2023-02-16T20:31:23.847Z,101575.88
2023-02-16T20:33:51.085Z,101581.78
2023-02-16T20:36:17.530Z,101586.81
2023-02-16T20:38:44.306Z,101576.22
2023-02-16T20:41:10.834Z,101574.00
2023-02-16T20:43:37.926Z,101576.47
2023-02-16T20:46:06.302Z,101578.97
2023-02-16T20:48:33.606Z,101567.41
2023-02-16T20:51:02.842Z,101569.88
2023-02-16T20:53:29.822Z,101570.66
2023-02-16T20:56:06.176Z,101580.34
2023-02-16T20:58:35.194Z,101589.16
2023-02-16T21:01:02.585Z,101579.75
2023-02-16T21:03:29.075Z,101576.34
2023-02-16T21:05:55.821Z,101583.91
2023-02-16T21:08:22.257Z,101584.97
2023-02-16T21:10:49.074Z,101584.28
2023-02-16T21:13:15.524Z,101571.63
2023-02-16T21:15:41.895Z,101575.56
2023-02-16T21:18:08.296Z,101579.19
2023-02-16T21:20:34.691Z,101580.22
2023-02-16T21:23:03.501Z,101584.03
2023-02-16T21:25:30.468Z,101585.06
2023-02-16T21:27:57.016Z,101575.09
2023-02-16T21:30:23.579Z,101573.41
2023-02-16T21:32:50.547Z,101578.06
2023-02-16T21:35:18.087Z,101572.75
2023-02-16T21:37:44.559Z,101573.78
2023-02-16T21:40:30.571Z,101578.63
2023-02-16T21:42:57.535Z,101574.38
2023-02-16T21:45:24.087Z,101572.44
2023-02-16T21:48:08.861Z,101571.63
2023-02-16T21:50:41.010Z,101570.09
2023-02-16T21:53:09.160Z,101575.56
2023-02-16T21:55:56.269Z,101570.94
2023-02-16T21:58:26.630Z,101567.53
2023-02-16T22:00:53.785Z,101568.38
2023-02-16T22:03:20.673Z,101566.47
2023-02-16T22:05:47.468Z,101560.13
2023-02-16T22:08:14.548Z,101570.47
2023-02-16T22:10:41.270Z,101564.97
2023-02-16T22:13:07.774Z,101567.72
2023-02-16T22:15:36.645Z,101562.03
2023-02-16T22:18:06.876Z,101552.94
2023-02-16T22:20:33.421Z,101561.19
2023-02-16T22:22:59.871Z,101550.19
2023-02-16T22:25:26.295Z,101556.34
2023-02-16T22:27:52.855Z,101554.44
2023-02-16T22:30:19.435Z,101554.28
2023-02-16T22:32:45.997Z,101562.88
2023-02-16T22:35:12.742Z,101553.59
2023-02-16T22:37:39.253Z,101551.53
2023-02-16T22:40:06.344Z,101556.63
2023-02-16T22:42:32.927Z,101558.34
2023-02-16T22:44:59.297Z,101556.63
2023-02-16T22:47:25.762Z,101562.13
2023-02-16T22:49:52.175Z,101558.53
2023-02-16T22:52:18.605Z,101553.22
2023-02-16T22:54:45.073Z,101550.84
2023-02-16T22:57:11.482Z,101544.69
2023-02-16T22:59:37.912Z,101539.38
2023-02-16T23:02:04.642Z,101530.28
2023-02-16T23:04:31.082Z,101539.59
2023-02-16T23:06:57.448Z,101540.41
2023-02-16T23:09:24.077Z,101530.50
2023-02-16T23:11:50.508Z,101518.63
2023-02-16T23:14:18.355Z,101532.38
2023-02-16T23:16:51.577Z,101533.63
2023-02-16T23:19:24.673Z,101532.75
2023-02-16T23:21:51.670Z,101540.16
2023-02-16T23:24:21.268Z,101561.09
2023-02-16T23:26:48.052Z,101565.75
2023-02-16T23:29:14.887Z,101564.50
2023-02-16T23:31:43.115Z,101559.84
2023-02-16T23:34:10.834Z,101569.81
2023-02-16T23:36:37.974Z,101567.06
2023-02-16T23:39:10.374Z,101569.59
2023-02-16T23:41:37.420Z,101568.09
2023-02-16T23:44:04.663Z,101566.22
2023-02-16T23:46:31.612Z,101556.91
2023-02-16T23:48:58.316Z,101560.50
2023-02-16T23:51:25.058Z,101564.97
2023-02-16T23:53:51.511Z,101558.63
2023-02-16T23:56:23.162Z,101558.22
2023-02-16T23:58:50.246Z,101564.78
